CBW6 weather

Belwood (Wright Field)
Ontario, Canada

Public forecast

Using degrees Celsius for public forecast. Weather courtesy of forecast.io.

METAR (pilot weather report)

Closest report is Waterloo Airport, 20.0 nm (37.1 km) S. Retrieved 2019/09/22 19:00 UTC (14 minutes ago):

CYKF 221900Z AUTO 22018G23KT 9SM SCT055 BKN140 29/16 A2993 RMK SLP131 DENSITY ALT 2800FT

TAF (pilot weather forecast)

Closest forecast is Waterloo Airport, 20.0 nm (37.1 km) S. Retrieved 2019/09/22 20:42 UTC (0 seconds ago):

TAF TAF CYKF 221938Z 2220/2308 22015G25KT P6SM BKN140 FM230000 23012G22KT P6SM BKN120 BECMG 2300/2302 23012KT FM230600 24012G22KT P6SM BKN050 FM230700 24012G22KT P6SM BKN025 TEMPO 2307/2308 5SM -SHRA BR BKN020 RMK FCST BASED ON AUTO OBS. NXT FCST BY 230200Z